Time;durP1;ratioP1;P1;durP2;ratioP2;P2;SDS_P1;SDS_P2;PMS_P1;PMS_P2;Temp;Humidity;BMP_temperature;BMP_pressure;BME280_temperature;BME280_humidity;BME280_pressure;Samples;Min_cycle;Max_cycle;Signal;HPM_P1;HPM_P2
2023/06/16 00:00:33;;;;;;;;;;;;;;;15.19;100.00;101824.97;4971140;28;21006;-75
2023/06/16 00:02:58;;;;;;;;;;;;;;;15.12;100.00;101823.75;4987821;28;19933;-75
2023/06/16 00:05:23;;;;;;;;;;;;;;;15.11;100.00;101822.03;4987519;28;20020;-75
2023/06/16 00:07:48;;;;;;;;;;;;;;;15.09;100.00;101819.44;4978844;28;20044;-75
2023/06/16 00:10:13;;;;;;;;;;;;;;;15.03;100.00;101814.53;4963535;28;19948;-75
2023/06/16 00:12:40;;;;;;;;;;;;;;;15.04;100.00;101820.78;4998389;28;19929;-75
2023/06/16 00:15:06;;;;;;;;;;;;;;;15.05;100.00;101820.69;4978164;28;19930;-75
2023/06/16 00:17:31;;;;;;;;;;;;;;;14.84;100.00;101817.88;4976680;28;20000;-75
2023/06/16 00:19:59;;;;;;;;;;;;;;;14.66;100.00;101812.06;4959215;28;20444;-75
2023/06/16 00:22:25;;;;;;;;;;;;;;;14.48;100.00;101812.56;4975281;28;19929;-75
2023/06/16 00:24:51;;;;;;;;;;;;;;;14.37;100.00;101812.53;4971394;28;19922;-75
2023/06/16 00:27:17;;;;;;;;;;;;;;;14.35;100.00;101817.19;4972677;28;19992;-75
2023/06/16 00:29:42;;;;;;;;;;;;;;;14.38;100.00;101808.84;4978634;28;19964;-75
2023/06/16 00:32:07;;;;;;;;;;;;;;;14.42;100.00;101814.88;4971222;28;19992;-75
2023/06/16 00:34:33;;;;;;;;;;;;;;;14.44;100.00;101812.88;4969256;28;20112;-75
2023/06/16 00:36:58;;;;;;;;;;;;;;;14.44;100.00;101815.59;4989008;28;19929;-75
2023/06/16 00:39:24;;;;;;;;;;;;;;;14.40;100.00;101813.16;4969068;28;20205;-75
2023/06/16 00:41:49;;;;;;;;;;;;;;;14.38;100.00;101812.41;4985455;28;19950;-75
2023/06/16 00:44:14;;;;;;;;;;;;;;;14.34;100.00;101808.22;4982450;28;19918;-75
2023/06/16 00:46:40;;;;;;;;;;;;;;;14.29;100.00;101812.28;4988491;28;19926;-75
2023/06/16 00:49:05;;;;;;;;;;;;;;;14.18;100.00;101811.28;4969419;28;20778;-75
2023/06/16 00:51:30;;;;;;;;;;;;;;;14.05;100.00;101800.56;4969403;28;19975;-75
2023/06/16 00:53:56;;;;;;;;;;;;;;;14.01;100.00;101811.72;4968991;28;19922;-75
2023/06/16 00:56:24;;;;;;;;;;;;;;;13.97;100.00;101808.38;4970038;28;20294;-75
2023/06/16 00:58:51;;;;;;;;;;;;;;;13.95;100.00;101810.34;4981691;28;19932;-75
2023/06/16 01:01:16;;;;;;;;;;;;;;;13.94;100.00;101803.22;4967225;28;20359;-75
2023/06/16 01:03:41;;;;;;;;;;;;;;;13.97;100.00;101804.84;4983049;28;20017;-75
2023/06/16 01:06:13;;;;;;;;;;;;;;;13.93;100.00;101806.91;4985774;28;19956;-75
2023/06/16 01:08:42;;;;;;;;;;;;;;;13.97;100.00;101802.13;4952894;28;19929;-75
2023/06/16 01:11:10;;;;;;;;;;;;;;;13.92;100.00;101799.78;4972685;28;19957;-75
2023/06/16 01:13:54;;;;;;;;;;;;;;;13.85;100.00;101802.09;4984820;28;19929;-75
2023/06/16 01:16:21;;;;;;;;;;;;;;;13.69;100.00;101798.84;4970413;28;19969;-75
2023/06/16 01:18:48;;;;;;;;;;;;;;;13.61;100.00;101802.13;4984305;28;20396;-75
2023/06/16 01:21:21;;;;;;;;;;;;;;;13.55;100.00;101803.44;4987001;28;19933;-75
2023/06/16 01:24:01;;;;;;;;;;;;;;;13.52;100.00;101803.66;4985852;28;20289;-75
2023/06/16 01:26:27;;;;;;;;;;;;;;;13.48;100.00;101804.91;4984263;28;19921;-76
2023/06/16 01:28:52;;;;;;;;;;;;;;;13.49;100.00;101807.47;4968340;28;19921;-75
2023/06/16 01:31:18;;;;;;;;;;;;;;;13.48;100.00;101805.75;4971373;28;19932;-75
2023/06/16 01:33:43;;;;;;;;;;;;;;;13.49;100.00;101801.22;4965002;28;19972;-75
2023/06/16 01:36:08;;;;;;;;;;;;;;;13.49;100.00;101803.94;4985438;28;19928;-75
2023/06/16 01:38:34;;;;;;;;;;;;;;;13.51;100.00;101804.66;4973876;28;20376;-75
2023/06/16 01:40:59;;;;;;;;;;;;;;;13.48;100.00;101805.75;4970154;28;19949;-75
2023/06/16 01:43:24;;;;;;;;;;;;;;;13.46;100.00;101805.00;4979962;28;19922;-75
2023/06/16 01:45:50;;;;;;;;;;;;;;;13.42;100.00;101808.06;4959202;28;20020;-75
2023/06/16 01:48:15;;;;;;;;;;;;;;;13.35;100.00;101805.78;4977774;28;20427;-75
2023/06/16 01:50:40;;;;;;;;;;;;;;;13.30;100.00;101805.25;4973261;28;19922;-75
2023/06/16 01:53:06;;;;;;;;;;;;;;;13.28;100.00;101809.03;4974718;28;19929;-75
2023/06/16 01:55:31;;;;;;;;;;;;;;;13.24;100.00;101807.53;4973583;28;20282;-75
2023/06/16 01:57:57;;;;;;;;;;;;;;;13.17;100.00;101794.50;4973065;28;20000;-75
2023/06/16 02:00:24;;;;;;;;;;;;;;;13.10;100.00;101803.16;4971474;28;20004;-75
2023/06/16 02:02:50;;;;;;;;;;;;;;;13.08;100.00;101799.72;4980746;28;19921;-75
2023/06/16 02:05:20;;;;;;;;;;;;;;;13.06;100.00;101797.16;4963040;28;19963;-75
2023/06/16 02:07:46;;;;;;;;;;;;;;;13.04;100.00;101799.09;4989308;28;19921;-75
2023/06/16 02:10:11;;;;;;;;;;;;;;;12.98;100.00;101803.06;4986895;28;19921;-75
2023/06/16 02:12:36;;;;;;;;;;;;;;;12.82;100.00;101797.09;4954731;28;19922;-75
2023/06/16 02:15:02;;;;;;;;;;;;;;;12.68;100.00;101793.56;4977495;28;20024;-75
2023/06/16 02:17:28;;;;;;;;;;;;;;;12.67;100.00;101801.75;4962394;28;20514;-75
2023/06/16 02:19:54;;;;;;;;;;;;;;;12.67;100.00;101808.00;4976868;28;19917;-75
2023/06/16 02:22:19;;;;;;;;;;;;;;;12.66;100.00;101802.72;4958777;28;20380;-75
2023/06/16 02:24:45;;;;;;;;;;;;;;;12.68;100.00;101801.66;4991954;28;20073;-75
2023/06/16 02:27:11;;;;;;;;;;;;;;;12.73;100.00;101806.69;4974220;28;20345;-75
2023/06/16 02:29:37;;;;;;;;;;;;;;;12.69;100.00;101806.06;4974553;28;19973;-75
2023/06/16 02:32:02;;;;;;;;;;;;;;;12.59;100.00;101799.59;4987234;28;19930;-75
2023/06/16 02:34:27;;;;;;;;;;;;;;;12.53;100.00;101800.91;4977418;28;19925;-75
2023/06/16 02:36:52;;;;;;;;;;;;;;;12.47;100.00;101798.63;4977604;28;20020;-75
2023/06/16 02:39:18;;;;;;;;;;;;;;;12.39;100.00;101801.88;4983558;28;20540;-75
2023/06/16 02:41:44;;;;;;;;;;;;;;;12.30;100.00;101800.69;4980889;28;19921;-75
2023/06/16 02:44:09;;;;;;;;;;;;;;;12.22;100.00;101799.50;4978422;28;19933;-75
2023/06/16 02:46:35;;;;;;;;;;;;;;;12.15;100.00;101801.75;4964588;28;19921;-75
2023/06/16 02:49:00;;;;;;;;;;;;;;;12.12;100.00;101800.16;4972785;28;20340;-75
2023/06/16 02:51:25;;;;;;;;;;;;;;;12.09;100.00;101803.03;4977545;28;19918;-75
2023/06/16 02:53:51;;;;;;;;;;;;;;;12.09;100.00;101810.25;4979815;28;19922;-75
2023/06/16 02:56:16;;;;;;;;;;;;;;;12.13;100.00;101809.06;4978571;28;19922;-75
2023/06/16 02:58:42;;;;;;;;;;;;;;;12.08;100.00;101806.69;4977098;28;20378;-75
2023/06/16 03:01:07;;;;;;;;;;;;;;;12.10;100.00;101807.47;4981918;28;20320;-75
2023/06/16 03:03:35;;;;;;;;;;;;;;;12.10;100.00;101801.19;4975775;28;19929;-75
2023/06/16 03:06:00;;;;;;;;;;;;;;;12.03;100.00;101803.47;4973867;28;19922;-75
2023/06/16 03:08:26;;;;;;;;;;;;;;;12.02;100.00;101803.56;4977345;28;19925;-75
2023/06/16 03:10:54;;;;;;;;;;;;;;;11.93;100.00;101803.19;4972374;28;19929;-75
2023/06/16 03:13:19;;;;;;;;;;;;;;;11.85;100.00;101801.03;4980049;28;19933;-75
2023/06/16 03:15:45;;;;;;;;;;;;;;;11.85;100.00;101803.72;4992593;28;20152;-75
2023/06/16 03:18:11;;;;;;;;;;;;;;;11.83;100.00;101807.47;4983004;28;19929;-75
2023/06/16 03:20:37;;;;;;;;;;;;;;;11.79;100.00;101804.13;4975405;28;19930;-75
2023/06/16 03:23:02;;;;;;;;;;;;;;;11.78;100.00;101801.56;4981458;28;19921;-75
2023/06/16 03:25:28;;;;;;;;;;;;;;;11.79;100.00;101801.44;4980499;28;20534;-75
2023/06/16 03:27:53;;;;;;;;;;;;;;;11.79;100.00;101803.25;4963281;28;20487;-75
2023/06/16 03:30:18;;;;;;;;;;;;;;;11.78;100.00;101802.41;4979631;28;19983;-75
2023/06/16 03:32:44;;;;;;;;;;;;;;;11.79;100.00;101804.13;4973795;28;19977;-75
2023/06/16 03:35:09;;;;;;;;;;;;;;;11.78;100.00;101799.72;4967013;28;19944;-75
2023/06/16 03:37:35;;;;;;;;;;;;;;;11.75;100.00;101799.94;4979419;28;19925;-75
2023/06/16 03:40:06;;;;;;;;;;;;;;;11.75;100.00;101805.31;4976142;28;19922;-75
2023/06/16 03:42:34;;;;;;;;;;;;;;;11.74;100.00;101806.28;4987597;28;20296;-75
2023/06/16 03:45:00;;;;;;;;;;;;;;;11.75;100.00;101810.69;4975744;28;20455;-75
2023/06/16 03:47:25;;;;;;;;;;;;;;;11.77;100.00;101808.75;4996817;28;19928;-75
2023/06/16 03:49:51;;;;;;;;;;;;;;;11.77;100.00;101810.59;4992319;28;19929;-75
2023/06/16 03:52:16;;;;;;;;;;;;;;;11.78;100.00;101806.94;4989518;28;20810;-75
2023/06/16 03:54:41;;;;;;;;;;;;;;;11.82;100.00;101811.13;4983533;28;19925;-75
2023/06/16 03:57:06;;;;;;;;;;;;;;;11.86;100.00;101818.03;4974799;28;19957;-76
2023/06/16 03:59:32;;;;;;;;;;;;;;;11.91;100.00;101821.28;4973367;28;20317;-75
2023/06/16 04:01:57;;;;;;;;;;;;;;;11.95;100.00;101817.41;4970268;28;20459;-75
2023/06/16 04:04:24;;;;;;;;;;;;;;;12.00;100.00;101809.06;4973591;28;20388;-75
2023/06/16 04:06:49;;;;;;;;;;;;;;;12.04;100.00;101813.25;4983464;28;19928;-75
2023/06/16 04:09:15;;;;;;;;;;;;;;;12.05;100.00;101816.81;4959154;28;19922;-75
2023/06/16 04:11:40;;;;;;;;;;;;;;;12.06;100.00;101813.13;4972240;28;19922;-75
2023/06/16 04:14:06;;;;;;;;;;;;;;;12.05;100.00;101815.00;4952829;28;19973;-75
2023/06/16 04:16:31;;;;;;;;;;;;;;;12.09;100.00;101819.19;4991243;28;19963;-75
2023/06/16 04:18:56;;;;;;;;;;;;;;;12.06;100.00;101819.41;4969697;28;20311;-75
2023/06/16 04:21:21;;;;;;;;;;;;;;;12.07;100.00;101825.63;4968504;28;20384;-75
2023/06/16 04:23:47;;;;;;;;;;;;;;;12.06;100.00;101821.22;4986991;28;19922;-75
2023/06/16 04:26:13;;;;;;;;;;;;;;;12.07;100.00;101818.44;4973591;28;19957;-75
2023/06/16 04:28:43;;;;;;;;;;;;;;;12.13;100.00;101819.84;4968390;28;19988;-75
2023/06/16 04:31:09;;;;;;;;;;;;;;;12.14;100.00;101818.88;4971725;28;19976;-75
2023/06/16 04:33:36;;;;;;;;;;;;;;;12.26;100.00;101820.72;4985120;28;20415;-75
2023/06/16 04:36:02;;;;;;;;;;;;;;;12.33;100.00;101829.22;4970299;28;19961;-75
2023/06/16 04:38:27;;;;;;;;;;;;;;;12.39;100.00;101820.72;4969777;28;20281;-75
2023/06/16 04:40:52;;;;;;;;;;;;;;;12.48;100.00;101819.22;4967202;28;19976;-76
2023/06/16 04:43:18;;;;;;;;;;;;;;;12.59;100.00;101821.16;4967693;28;19926;-75
2023/06/16 04:45:43;;;;;;;;;;;;;;;12.68;100.00;101825.91;4973388;28;20140;-75
2023/06/16 04:48:08;;;;;;;;;;;;;;;12.76;100.00;101822.66;4950112;28;19925;-75
2023/06/16 04:50:34;;;;;;;;;;;;;;;12.86;100.00;101821.00;4969910;28;19953;-75
2023/06/16 04:52:59;;;;;;;;;;;;;;;13.02;100.00;101822.59;4970671;28;19930;-75
2023/06/16 04:55:26;;;;;;;;;;;;;;;13.20;100.00;101826.63;4988273;28;19977;-75
2023/06/16 04:57:51;;;;;;;;;;;;;;;13.33;100.00;101829.28;4967671;28;19926;-75
2023/06/16 05:00:16;;;;;;;;;;;;;;;13.47;100.00;101825.59;4950869;28;20470;-75
2023/06/16 05:02:41;;;;;;;;;;;;;;;13.63;100.00;101833.41;4968201;28;21151;-75
2023/06/16 05:05:07;;;;;;;;;;;;;;;13.76;100.00;101836.03;4965578;28;19928;-75
2023/06/16 05:07:33;;;;;;;;;;;;;;;13.87;100.00;101839.78;4985293;28;20508;-75
2023/06/16 05:09:58;;;;;;;;;;;;;;;14.01;100.00;101830.63;4965131;28;19988;-75
2023/06/16 05:12:25;;;;;;;;;;;;;;;14.17;100.00;101831.16;4965712;28;19959;-75
2023/06/16 05:14:51;;;;;;;;;;;;;;;14.36;100.00;101833.28;4970024;28;20028;-75
2023/06/16 05:17:16;;;;;;;;;;;;;;;14.54;100.00;101828.28;4973666;28;19925;-75
2023/06/16 05:19:41;;;;;;;;;;;;;;;14.75;100.00;101830.28;4981698;28;19921;-75
2023/06/16 05:22:06;;;;;;;;;;;;;;;14.92;100.00;101831.63;4974111;28;19922;-75
2023/06/16 05:24:32;;;;;;;;;;;;;;;15.11;100.00;101830.97;4973719;28;19926;-75
2023/06/16 05:26:57;;;;;;;;;;;;;;;15.28;100.00;101831.47;4975076;28;20427;-75
2023/06/16 05:29:22;;;;;;;;;;;;;;;15.44;100.00;101834.59;5001150;28;19928;-75
2023/06/16 05:31:47;;;;;;;;;;;;;;;15.44;100.00;101806.69;4983423;28;20055;-76
2023/06/16 05:34:13;;;;;;;;;;;;;;;15.73;100.00;101838.59;4972109;28;19965;-75
2023/06/16 05:36:38;;;;;;;;;;;;;;;15.89;100.00;101840.91;4974321;28;19922;-75
2023/06/16 05:39:06;;;;;;;;;;;;;;;16.06;100.00;101836.72;4977473;28;19922;-75
2023/06/16 05:41:32;;;;;;;;;;;;;;;16.23;100.00;101837.16;4975142;28;19968;-75
2023/06/16 05:43:57;;;;;;;;;;;;;;;16.34;100.00;101839.78;4980093;28;19922;-75
2023/06/16 05:46:22;;;;;;;;;;;;;;;16.51;100.00;101846.44;4976307;28;19921;-75
2023/06/16 05:48:48;;;;;;;;;;;;;;;16.64;100.00;101840.78;4990523;28;20598;-75
2023/06/16 05:51:13;;;;;;;;;;;;;;;16.76;100.00;101836.13;4971302;28;20019;-75
2023/06/16 05:53:38;;;;;;;;;;;;;;;16.89;100.00;101842.19;4975926;28;19926;-75
2023/06/16 05:56:03;;;;;;;;;;;;;;;17.04;99.83;101839.13;4978385;28;19934;-75
2023/06/16 05:58:28;;;;;;;;;;;;;;;17.18;100.00;101846.91;4977316;28;20407;-75
2023/06/16 06:00:54;;;;;;;;;;;;;;;17.33;100.00;101854.63;4975064;28;20448;-75
2023/06/16 06:03:19;;;;;;;;;;;;;;;17.50;100.00;101853.94;4973537;28;20531;-75
2023/06/16 06:05:45;;;;;;;;;;;;;;;17.62;97.43;101857.38;4987981;28;19948;-76
2023/06/16 06:08:10;;;;;;;;;;;;;;;17.79;96.34;101852.28;4981269;28;20380;-75
2023/06/16 06:10:35;;;;;;;;;;;;;;;17.95;91.74;101862.56;4978358;28;20325;-75
2023/06/16 06:13:03;;;;;;;;;;;;;;;18.09;91.09;101856.72;4977254;28;19921;-75
2023/06/16 06:15:29;;;;;;;;;;;;;;;18.24;89.52;101862.56;4978903;28;19930;-75
2023/06/16 06:17:54;;;;;;;;;;;;;;;18.40;92.84;101861.97;4972089;28;19922;-74
2023/06/16 06:20:19;;;;;;;;;;;;;;;18.51;88.38;101869.09;4956528;28;19980;-76
2023/06/16 06:22:44;;;;;;;;;;;;;;;18.64;87.45;101871.50;4975680;28;20580;-75
2023/06/16 06:25:10;;;;;;;;;;;;;;;18.74;87.05;101864.19;4995858;28;20384;-75
2023/06/16 06:27:36;;;;;;;;;;;;;;;18.87;80.18;101871.13;4975692;28;20508;-75
2023/06/16 06:30:01;;;;;;;;;;;;;;;19.03;82.09;101857.78;4976090;28;19921;-75
2023/06/16 06:32:26;;;;;;;;;;;;;;;19.15;78.75;101872.06;4980010;28;20015;-75
2023/06/16 06:34:51;;;;;;;;;;;;;;;19.27;77.03;101869.13;4990772;28;19926;-75
2023/06/16 06:37:18;;;;;;;;;;;;;;;19.39;77.29;101867.91;4989657;28;20323;-75
2023/06/16 06:39:44;;;;;;;;;;;;;;;19.53;75.51;101876.56;4977810;28;19929;-75
2023/06/16 06:42:12;;;;;;;;;;;;;;;19.59;74.71;101874.09;4958546;28;19926;-75
2023/06/16 06:44:37;;;;;;;;;;;;;;;19.58;76.04;101850.59;4976437;28;19921;-75
2023/06/16 06:47:02;;;;;;;;;;;;;;;19.83;73.29;101877.19;4981369;28;19925;-75
2023/06/16 06:49:27;;;;;;;;;;;;;;;19.97;71.71;101871.25;4977337;28;19954;-76
2023/06/16 06:51:52;;;;;;;;;;;;;;;20.11;68.07;101877.16;4992613;28;19922;-75
2023/06/16 06:54:18;;;;;;;;;;;;;;;20.25;70.71;101876.59;4976048;28;19929;-75
2023/06/16 06:56:43;;;;;;;;;;;;;;;20.34;65.92;101875.63;4976505;28;19922;-76
2023/06/16 06:59:08;;;;;;;;;;;;;;;20.43;73.15;101878.41;4976837;28;20328;-76
2023/06/16 07:01:33;;;;;;;;;;;;;;;20.46;60.48;101878.09;4973045;28;20482;-75
2023/06/16 07:03:59;;;;;;;;;;;;;;;20.58;62.87;101881.41;4974934;28;20765;-77
2023/06/16 07:06:24;;;;;;;;;;;;;;;20.68;63.95;101876.69;4979451;28;20367;-75
2023/06/16 07:08:50;;;;;;;;;;;;;;;20.77;62.83;101883.13;4973167;28;20498;-75
2023/06/16 07:11:15;;;;;;;;;;;;;;;20.91;61.58;101878.91;4959115;28;20075;-73
2023/06/16 07:13:40;;;;;;;;;;;;;;;20.95;57.82;101875.69;4974256;28;20376;-77
2023/06/16 07:16:06;;;;;;;;;;;;;;;20.72;54.73;101858.97;4991454;28;20538;-76
2023/06/16 07:18:31;;;;;;;;;;;;;;;20.91;54.66;101881.66;4974137;28;20004;-75
2023/06/16 07:20:56;;;;;;;;;;;;;;;21.09;57.18;101882.41;4989243;28;19930;-76
2023/06/16 07:23:21;;;;;;;;;;;;;;;21.30;58.81;101872.94;4973007;28;19963;-75
2023/06/16 07:25:47;;;;;;;;;;;;;;;21.44;54.07;101876.91;4976979;28;19918;-75
2023/06/16 07:28:13;;;;;;;;;;;;;;;21.54;59.99;101879.47;4963357;28;19925;-75
2023/06/16 07:30:38;;;;;;;;;;;;;;;21.61;56.36;101876.91;4978768;28;20406;-75
2023/06/16 07:33:03;;;;;;;;;;;;;;;21.62;51.32;101884.13;4973607;28;19922;-75
2023/06/16 07:35:28;;;;;;;;;;;;;;;21.76;51.83;101882.63;4976495;28;19929;-76
2023/06/16 07:37:53;;;;;;;;;;;;;;;21.93;51.11;101878.03;4980247;28;19973;-75
2023/06/16 07:40:19;;;;;;;;;;;;;;;22.09;49.20;101883.53;4977870;28;19949;-75
2023/06/16 07:42:45;;;;;;;;;;;;;;;22.22;45.47;101883.00;4970335;28;20348;-75
2023/06/16 07:45:10;;;;;;;;;;;;;;;22.24;48.81;101885.56;4975984;28;20269;-75
2023/06/16 07:47:35;;;;;;;;;;;;;;;22.30;48.96;101884.88;4974615;28;20035;-76
2023/06/16 07:50:01;;;;;;;;;;;;;;;22.29;47.82;101877.69;4973582;28;19922;-75
2023/06/16 07:52:26;;;;;;;;;;;;;;;22.45;45.54;101876.88;4977280;28;20358;-75
2023/06/16 07:54:51;;;;;;;;;;;;;;;22.51;44.31;101878.03;4976281;28;19933;-75
2023/06/16 07:57:16;;;;;;;;;;;;;;;22.55;46.07;101877.50;4969837;28;19960;-75
2023/06/16 07:59:42;;;;;;;;;;;;;;;22.67;45.94;101880.72;4972254;28;19965;-75
2023/06/16 08:02:07;;;;;;;;;;;;;;;22.76;46.45;101876.13;4994406;28;20348;-75
2023/06/16 08:04:32;;;;;;;;;;;;;;;22.77;40.65;101878.66;4961467;28;19964;-75
2023/06/16 08:06:57;;;;;;;;;;;;;;;22.89;41.37;101875.56;4977065;28;20017;-75
2023/06/16 08:09:23;;;;;;;;;;;;;;;22.95;40.05;101866.63;4959572;28;19948;-75
2023/06/16 08:11:48;;;;;;;;;;;;;;;22.93;42.90;101868.69;4975920;28;19972;-78
2023/06/16 08:14:14;;;;;;;;;;;;;;;22.91;41.95;101874.34;4974198;28;20237;-74
2023/06/16 08:16:39;;;;;;;;;;;;;;;23.01;41.41;101871.41;4976565;28;19928;-75
2023/06/16 08:19:05;;;;;;;;;;;;;;;23.16;44.40;101863.28;4990758;28;20061;-75
2023/06/16 08:21:30;;;;;;;;;;;;;;;23.21;42.60;101863.66;4976665;28;19928;-75
2023/06/16 08:23:55;;;;;;;;;;;;;;;23.13;39.96;101865.53;4973472;28;19973;-77
2023/06/16 08:26:20;;;;;;;;;;;;;;;23.10;40.95;101863.16;4969907;28;20299;-76
2023/06/16 08:28:46;;;;;;;;;;;;;;;23.04;42.21;101862.81;4975033;28;19921;-77
2023/06/16 08:31:11;;;;;;;;;;;;;;;23.02;41.73;101864.88;4979696;28;19972;-78
2023/06/16 08:33:36;;;;;;;;;;;;;;;23.13;41.21;101858.16;4973577;28;20331;-76
2023/06/16 08:36:02;;;;;;;;;;;;;;;23.34;40.58;101857.59;4974849;28;19980;-74
2023/06/16 08:38:27;;;;;;;;;;;;;;;23.49;42.81;101857.66;4968730;28;20209;-76
2023/06/16 08:40:52;;;;;;;;;;;;;;;23.56;43.12;101851.47;4972039;28;19955;-75
2023/06/16 08:43:17;;;;;;;;;;;;;;;23.66;42.60;101855.69;4972474;28;20012;-78
2023/06/16 08:45:43;;;;;;;;;;;;;;;23.84;45.18;101856.41;4973753;28;20048;-76
2023/06/16 08:48:10;;;;;;;;;;;;;;;24.08;40.88;101863.59;4958331;28;19922;-77
2023/06/16 08:50:35;;;;;;;;;;;;;;;24.05;38.34;101845.63;4972528;28;19922;-75
2023/06/16 08:53:01;;;;;;;;;;;;;;;24.31;40.44;101858.09;4972328;28;19961;-76
2023/06/16 08:55:27;;;;;;;;;;;;;;;24.38;37.89;101856.28;4973396;28;19961;-75
2023/06/16 08:57:53;;;;;;;;;;;;;;;24.55;41.71;101858.88;4973640;28;19922;-78
2023/06/16 09:00:18;;;;;;;;;;;;;;;24.66;39.93;101849.31;4958198;28;19921;-76
2023/06/16 09:02:48;;;;;;;;;;;;;;;24.71;37.63;101855.13;4957909;28;19922;-76
2023/06/16 09:05:14;;;;;;;;;;;;;;;24.56;42.06;101855.94;4972604;28;19921;-75
2023/06/16 09:07:39;;;;;;;;;;;;;;;24.73;36.85;101860.41;4974451;28;20013;-75
2023/06/16 09:10:05;;;;;;;;;;;;;;;24.90;38.16;101852.84;4974850;28;19921;-76
2023/06/16 09:12:31;;;;;;;;;;;;;;;25.01;37.75;101852.38;4959872;28;19922;-75
2023/06/16 09:14:56;;;;;;;;;;;;;;;25.10;37.48;101855.84;4988807;28;20348;-76
2023/06/16 09:17:22;;;;;;;;;;;;;;;25.15;38.21;101862.47;4974206;28;19929;-76
2023/06/16 09:19:47;;;;;;;;;;;;;;;25.06;38.29;101860.03;4962805;28;20258;-76
2023/06/16 09:22:18;;;;;;;;;;;;;;;25.13;38.43;101858.22;4976470;28;20427;-77
2023/06/16 09:25:07;;;;;;;;;;;;;;;25.20;38.03;101853.63;4981223;28;20337;-76
2023/06/16 09:27:45;;;;;;;;;;;;;;;25.37;39.70;101861.69;4975929;28;20064;-76
2023/06/16 09:30:11;;;;;;;;;;;;;;;25.54;41.53;101860.41;4972826;28;19922;-77
2023/06/16 09:32:40;;;;;;;;;;;;;;;25.55;39.45;101855.78;4972309;28;19925;-76
2023/06/16 09:35:15;;;;;;;;;;;;;;;25.58;37.18;101856.22;4973805;28;19925;-76
2023/06/16 09:37:40;;;;;;;;;;;;;;;25.56;39.09;101854.72;4953862;28;19929;-77
2023/06/16 09:40:07;;;;;;;;;;;;;;;25.65;41.56;101853.53;4974800;28;19928;-75
2023/06/16 09:42:33;;;;;;;;;;;;;;;25.74;37.02;101849.63;4975103;28;19981;-77
2023/06/16 09:44:58;;;;;;;;;;;;;;;25.86;37.57;101849.94;4973818;28;20378;-76
2023/06/16 09:47:23;;;;;;;;;;;;;;;25.85;37.07;101856.50;4966646;28;20360;-77
2023/06/16 09:49:52;;;;;;;;;;;;;;;25.50;37.05;101845.34;4975173;28;20420;-77
2023/06/16 09:52:17;;;;;;;;;;;;;;;25.36;37.32;101841.56;4973171;28;20008;-76
2023/06/16 09:54:42;;;;;;;;;;;;;;;25.26;38.26;101847.38;4990047;28;20401;-77
2023/06/16 09:57:07;;;;;;;;;;;;;;;25.63;38.11;101841.88;4979080;28;19921;-76
2023/06/16 09:59:33;;;;;;;;;;;;;;;25.90;36.83;101850.41;4956260;28;20404;-78
2023/06/16 10:01:58;;;;;;;;;;;;;;;25.96;36.23;101849.63;4973442;28;19928;-75
2023/06/16 10:04:23;;;;;;;;;;;;;;;26.14;35.29;101842.81;4963810;28;20004;-77
2023/06/16 10:07:00;;;;;;;;;;;;;;;26.18;37.24;101836.72;4970066;28;19925;-77
2023/06/16 10:09:27;;;;;;;;;;;;;;;26.36;35.58;101840.88;4955667;28;19929;-76
2023/06/16 10:11:53;;;;;;;;;;;;;;;26.54;35.50;101834.84;4971361;28;19965;-74
2023/06/16 10:14:19;;;;;;;;;;;;;;;26.63;35.13;101839.13;4962931;28;20261;-77
2023/06/16 10:16:45;;;;;;;;;;;;;;;26.70;35.50;101835.56;4975753;28;19929;-76
2023/06/16 10:19:10;;;;;;;;;;;;;;;26.78;34.59;101835.41;4955825;28;20391;-75
2023/06/16 10:21:37;;;;;;;;;;;;;;;26.67;34.73;101831.31;4985858;28;19921;-77
2023/06/16 10:24:02;;;;;;;;;;;;;;;26.90;34.08;101832.94;4990997;28;19918;-76
2023/06/16 10:26:27;;;;;;;;;;;;;;;26.82;35.89;101827.59;4958206;28;19922;-75
2023/06/16 10:28:53;;;;;;;;;;;;;;;26.82;32.17;101838.63;4992415;28;20009;-77
2023/06/16 10:31:18;;;;;;;;;;;;;;;27.01;32.36;101829.63;4973713;28;20185;-77
2023/06/16 10:33:51;;;;;;;;;;;;;;;27.24;36.58;101831.19;4975135;28;20283;-76
2023/06/16 10:36:19;;;;;;;;;;;;;;;27.32;34.92;101819.09;4972026;28;20447;-78
2023/06/16 10:38:45;;;;;;;;;;;;;;;27.37;36.42;101817.41;4976275;28;19929;-78
2023/06/16 10:41:12;;;;;;;;;;;;;;;27.47;34.65;101813.44;4976916;28;19923;-76
2023/06/16 10:43:37;;;;;;;;;;;;;;;27.56;32.33;101811.34;4977109;28;20016;-74
2023/06/16 10:46:15;;;;;;;;;;;;;;;27.67;31.99;101805.22;4977017;28;20327;-77
2023/06/16 10:48:57;;;;;;;;;;;;;;;27.93;33.34;101814.56;4957990;28;19959;-77
2023/06/16 10:51:42;;;;;;;;;;;;;;;27.93;35.93;101809.88;4973526;28;19917;-75
2023/06/16 10:54:08;;;;;;;;;;;;;;;28.14;31.45;101808.84;4972197;28;20356;-75
2023/06/16 10:56:52;;;;;;;;;;;;;;;28.28;34.27;101808.81;4980853;28;19997;-78
2023/06/16 10:59:17;;;;;;;;;;;;;;;28.69;30.90;101815.09;4976193;28;20372;-76
2023/06/16 11:01:49;;;;;;;;;;;;;;;29.01;30.42;101806.91;4972291;28;19922;-74
2023/06/16 11:04:14;;;;;;;;;;;;;;;29.26;31.91;101798.72;4958842;28;20399;-75
2023/06/16 11:06:58;;;;;;;;;;;;;;;29.37;30.57;101801.84;4976230;28;19926;-76
2023/06/16 11:09:27;;;;;;;;;;;;;;;29.47;31.69;101796.69;4972774;28;20021;-77
2023/06/16 11:11:52;;;;;;;;;;;;;;;29.64;31.54;101799.78;4977728;28;19921;-77
2023/06/16 11:14:17;;;;;;;;;;;;;;;29.85;29.78;101794.91;4984754;28;20633;-76
2023/06/16 11:16:44;;;;;;;;;;;;;;;30.25;27.55;101804.81;4979686;28;20375;-75
2023/06/16 11:19:09;;;;;;;;;;;;;;;30.31;27.74;101792.81;4977317;28;19928;-78
2023/06/16 11:21:34;;;;;;;;;;;;;;;30.50;27.28;101793.66;4970468;28;19922;-75
2023/06/16 11:24:09;;;;;;;;;;;;;;;30.63;29.33;101778.81;4991520;28;20295;-74
2023/06/16 11:26:35;;;;;;;;;;;;;;;30.74;28.81;101785.50;4978998;28;19926;-75
2023/06/16 11:29:00;;;;;;;;;;;;;;;30.97;28.13;101793.97;4993065;28;19928;-75
2023/06/16 11:31:25;;;;;;;;;;;;;;;31.07;27.69;101798.94;4974073;28;19987;-76
2023/06/16 11:33:53;;;;;;;;;;;;;;;31.47;25.30;101810.56;4973872;28;20453;-76
2023/06/16 11:36:20;;;;;;;;;;;;;;;31.15;27.33;101794.16;4979423;28;20016;-76
2023/06/16 11:38:46;;;;;;;;;;;;;;;31.53;25.81;101792.97;4959991;28;19976;-74
2023/06/16 11:41:30;;;;;;;;;;;;;;;31.56;27.14;101789.72;4976484;28;19922;-73
2023/06/16 11:43:56;;;;;;;;;;;;;;;31.72;27.06;101791.00;4958845;28;19922;-76
2023/06/16 11:46:28;;;;;;;;;;;;;;;31.87;26.50;101787.75;4975925;28;19924;-74
2023/06/16 11:48:53;;;;;;;;;;;;;;;32.21;24.25;101804.63;4975490;28;20224;-73
2023/06/16 11:51:19;;;;;;;;;;;;;;;32.23;26.89;101777.47;4977100;28;20599;-73
2023/06/16 11:53:45;;;;;;;;;;;;;;;31.98;28.09;101773.00;4975666;28;19976;-76
2023/06/16 11:56:14;;;;;;;;;;;;;;;32.23;26.90;101785.81;4977433;28;19941;-75
2023/06/16 11:58:44;;;;;;;;;;;;;;;32.44;28.20;101780.75;4973340;28;20655;-75
2023/06/16 12:01:13;;;;;;;;;;;;;;;32.49;28.94;101794.75;4951566;28;20209;-75
2023/06/16 12:03:39;;;;;;;;;;;;;;;32.54;24.96;101796.81;4975395;28;19961;-74
2023/06/16 12:06:05;;;;;;;;;;;;;;;33.14;24.36;101789.97;4973515;28;19965;-73
2023/06/16 12:08:57;;;;;;;;;;;;;;;33.35;24.52;101776.44;4987891;28;19960;-73
2023/06/16 12:11:28;;;;;;;;;;;;;;;33.63;24.69;101774.72;4986871;28;19984;-75
2023/06/16 12:13:54;;;;;;;;;;;;;;;33.12;25.39;101767.13;4975065;28;19994;-76
2023/06/16 12:16:19;;;;;;;;;;;;;;;33.08;27.74;101759.53;4975884;28;20383;-76
2023/06/16 12:18:45;;;;;;;;;;;;;;;33.14;24.98;101769.66;4972955;28;20065;-75
2023/06/16 12:21:28;;;;;;;;;;;;;;;33.65;25.77;101759.44;4974328;28;19925;-73
2023/06/16 12:23:54;;;;;;;;;;;;;;;33.60;25.21;101762.16;4969372;28;19922;-75
2023/06/16 12:26:46;;;;;;;;;;;;;;;33.53;25.24;101757.84;4974864;28;20969;-73
2023/06/16 12:29:15;;;;;;;;;;;;;;;34.09;24.40;101760.69;4966628;28;20351;-73